Time;durP1;ratioP1;P1;durP2;ratioP2;P2;SDS_P1;SDS_P2;PMS_P1;PMS_P2;Temp;Humidity;BMP_temperature;BMP_pressure;BME280_temperature;BME280_humidity;BME280_pressure;Samples;Min_cycle;Max_cycle;Signal;HPM_P1;HPM_P2
2022/10/12 00:00:29;;;;;;;6.05;3.42;;;;;;;;;;5073403;28;20043;-84
2022/10/12 00:03:13;;;;;;;8.52;3.75;;;;;;;;;;5074405;28;20157;-84
2022/10/12 00:06:01;;;;;;;6.22;3.13;;;;;;;;;;5074561;28;20040;-84
2022/10/12 00:08:46;;;;;;;7.30;2.70;;;;;;;;;;5068622;28;20028;-84
2022/10/12 00:11:31;;;;;;;4.13;2.50;;;;;;;;;;5067432;28;20124;-85
2022/10/12 00:14:15;;;;;;;5.82;3.08;;;;;;;;;;5074201;28;20161;-84
2022/10/12 00:17:00;;;;;;;4.45;3.08;;;;;;;;;;5073940;28;20035;-84
2022/10/12 00:19:44;;;;;;;6.15;3.00;;;;;;;;;;5073525;28;20039;-84
2022/10/12 00:22:29;;;;;;;3.03;2.20;;;;;;;;;;5070961;28;20055;-84
2022/10/12 00:25:14;;;;;;;3.25;2.25;;;;;;;;;;5068955;28;20052;-84
2022/10/12 00:27:58;;;;;;;3.13;2.25;;;;;;;;;;5074060;28;20441;-84
2022/10/12 00:30:43;;;;;;;4.75;2.20;;;;;;;;;;5072103;28;20043;-85
2022/10/12 00:33:28;;;;;;;4.13;2.08;;;;;;;;;;5073794;28;20086;-84
2022/10/12 00:36:14;;;;;;;4.93;2.40;;;;;;;;;;5073415;28;20125;-85
2022/10/12 00:38:59;;;;;;;3.83;2.03;;;;;;;;;;5070924;28;20035;-84
2022/10/12 00:41:44;;;;;;;3.70;1.98;;;;;;;;;;5073037;28;20101;-85
2022/10/12 00:44:45;;;;;;;3.80;1.77;;;;;;;;;;5072640;28;20060;-84
2022/10/12 00:47:35;;;;;;;3.97;1.20;;;;;;;;;;5073294;28;20082;-84
2022/10/12 00:50:26;;;;;;;6.82;1.60;;;;;;;;;;5073727;28;20094;-84
2022/10/12 00:53:16;;;;;;;2.75;1.60;;;;;;;;;;5062924;28;20075;-84
2022/10/12 00:56:02;;;;;;;3.35;1.83;;;;;;;;;;5059479;28;20106;-84
2022/10/12 00:58:48;;;;;;;3.13;1.50;;;;;;;;;;5061333;28;20499;-84
2022/10/12 01:01:34;;;;;;;3.40;1.42;;;;;;;;;;5073045;28;20039;-84
2022/10/12 01:04:18;;;;;;;5.43;1.40;;;;;;;;;;5072443;28;20117;-84
2022/10/12 01:07:03;;;;;;;2.30;1.23;;;;;;;;;;5044955;28;20380;-84
2022/10/12 01:09:48;;;;;;;10.50;1.55;;;;;;;;;;5060207;28;20047;-84
2022/10/12 01:12:33;;;;;;;2.22;1.48;;;;;;;;;;5073083;28;20058;-84
2022/10/12 01:15:17;;;;;;;3.05;1.45;;;;;;;;;;5057766;28;20031;-84
2022/10/12 01:18:14;;;;;;;2.78;1.27;;;;;;;;;;5072417;28;20044;-84
2022/10/12 01:21:11;;;;;;;4.10;1.48;;;;;;;;;;5050651;28;20073;-84
2022/10/12 01:24:06;;;;;;;1.48;0.93;;;;;;;;;;5068630;28;20058;-84
2022/10/12 01:26:51;;;;;;;7.60;1.13;;;;;;;;;;5072289;28;20530;-84
2022/10/12 01:29:51;;;;;;;2.55;1.25;;;;;;;;;;5072689;28;20086;-84
2022/10/12 01:32:42;;;;;;;2.00;1.50;;;;;;;;;;5068689;28;20818;-84
2022/10/12 01:35:30;;;;;;;6.22;1.40;;;;;;;;;;5068860;28;20487;-84
2022/10/12 01:38:21;;;;;;;2.25;1.20;;;;;;;;;;5071593;28;20043;-84
2022/10/12 01:41:21;;;;;;;1.83;1.05;;;;;;;;;;5072053;28;20541;-84
2022/10/12 01:44:06;;;;;;;3.42;1.30;;;;;;;;;;5071847;28;20074;-84
2022/10/12 01:46:52;;;;;;;5.13;2.00;;;;;;;;;;5056933;28;20534;-84
2022/10/12 01:49:37;;;;;;;5.82;1.33;;;;;;;;;;5071177;28;20086;-84
2022/10/12 01:52:29;;;;;;;1.95;1.17;;;;;;;;;;5071351;28;20149;-84
2022/10/12 01:55:23;;;;;;;2.25;1.25;;;;;;;;;;5065164;28;20068;-84
2022/10/12 01:58:25;;;;;;;2.30;1.45;;;;;;;;;;5068835;28;20397;-84
2022/10/12 02:01:10;;;;;;;3.10;1.50;;;;;;;;;;5057427;28;20052;-84
2022/10/12 02:04:06;;;;;;;6.20;1.48;;;;;;;;;;5067786;28;20035;-84
2022/10/12 02:07:30;;;;;;;3.53;1.58;;;6.20;99.90;;;;;;5050330;28;20067;-84
2022/10/12 02:10:18;;;;;;;3.83;1.88;;;;;;;;;;5051842;28;20492;-84
2022/10/12 02:13:06;;;;;;;2.47;1.60;;;;;;;;;;5064779;28;20047;-84
2022/10/12 02:15:51;;;;;;;2.95;1.60;;;;;;;;;;5044552;28;20040;-85
2022/10/12 02:18:38;;;;;;;2.28;1.38;;;;;;;;;;5052146;28;20040;-84
2022/10/12 02:21:25;;;;;;;6.95;1.20;;;;;;;;;;5051913;28;20048;-84
2022/10/12 02:24:09;;;;;;;2.45;1.50;;;;;;;;;;5051584;28;20616;-84
2022/10/12 02:26:55;;;;;;;2.15;1.40;;;;;;;;;;5064505;28;20551;-84
2022/10/12 02:29:42;;;;;;;1.40;1.00;;;;;;;;;;5051686;28;20087;-84
2022/10/12 02:32:29;;;;;;;1.40;1.20;;;;;;;;;;5065204;28;20040;-84
2022/10/12 02:35:14;;;;;;;3.17;1.60;;;;;;;;;;5052469;28;20040;-84
2022/10/12 02:38:06;;;;;;;2.95;2.08;;;;;;;;;;5068779;28;20180;-84
2022/10/12 02:40:55;;;;;;;1.73;1.25;;;;;;;;;;5068496;28;20059;-85
2022/10/12 02:43:44;;;;;;;2.35;1.55;;;;;;;;;;5066647;28;20036;-84
2022/10/12 02:46:30;;;;;;;5.65;1.23;;;;;;;;;;5055917;28;20406;-84
2022/10/12 02:49:16;;;;;;;4.00;1.48;;;;;;;;;;5055156;28;20126;-84
2022/10/12 02:52:02;;;;;;;2.97;1.30;;;;;;;;;;5054994;28;20049;-84
2022/10/12 02:54:47;;;;;;;2.20;1.23;;;;;;;;;;5055683;28;20547;-84
2022/10/12 02:57:32;;;;;;;3.05;1.20;;;;;;;;;;5055330;28;20039;-84
2022/10/12 03:00:17;;;;;;;2.05;1.25;;;;;;;;;;5068244;28;20036;-84
2022/10/12 03:03:01;;;;;;;1.73;1.10;;;;;;;;;;5053995;28;20083;-85
2022/10/12 03:05:46;;;;;;;1.40;1.05;;;;;;;;;;5054485;28;20045;-84
2022/10/12 03:08:30;;;;;;;3.53;1.45;;;;;;;;;;5055624;28;20074;-84
2022/10/12 03:11:15;;;;;;;3.50;1.73;;;;;;;;;;5066501;28;20044;-84
2022/10/12 03:13:59;;;;;;;2.25;1.40;;;;;;;;;;5054719;28;20040;-84
2022/10/12 03:16:45;;;;;;;2.05;1.08;;;;;;;;;;5055231;28;20448;-84
2022/10/12 03:19:30;;;;;;;6.55;1.65;;;;;;;;;;5054094;28;20040;-84
2022/10/12 03:22:15;;;;;;;2.22;1.25;;;;;;;;;;5054571;28;20095;-84
2022/10/12 03:24:59;;;;;;;2.00;1.48;;;;;;;;;;5054838;28;20087;-84
2022/10/12 03:27:44;;;;;;;2.35;1.27;;;;;;;;;;5068147;28;20516;-84
2022/10/12 03:30:28;;;;;;;1.45;1.15;;;;;;;;;;5054046;28;20044;-84
2022/10/12 03:33:13;;;;;;;2.15;1.10;;;;;;;;;;5067505;28;20448;-84
2022/10/12 03:35:58;;;;;;;2.42;1.50;;;;;;;;;;5054954;28;20409;-84
2022/10/12 03:38:43;;;;;;;8.80;1.45;;;;;;;;;;5054640;28;20040;-84
2022/10/12 03:41:28;;;;;;;5.80;1.50;;;;;;;;;;5067985;28;20051;-84
2022/10/12 03:44:12;;;;;;;4.13;1.30;;;;;;;;;;5067541;28;20086;-84
2022/10/12 03:46:56;;;;;;;3.38;2.38;;;;;;;;;;5053352;28;20106;-84
2022/10/12 03:49:41;;;;;;;3.17;1.58;;;;;;;;;;5067730;28;20043;-84
2022/10/12 03:52:26;;;;;;;2.10;1.23;;;;;;;;;;5054361;28;20044;-84
2022/10/12 03:55:10;;;;;;;3.30;1.35;;;;;;;;;;5050685;28;20194;-84
2022/10/12 03:57:55;;;;;;;2.33;1.33;;;;;;;;;;5067643;28;20039;-84
2022/10/12 04:00:39;;;;;;;2.15;1.42;;;;;;;;;;5054531;28;20543;-84
2022/10/12 04:03:24;;;;;;;2.13;1.35;;;;;;;;;;5067125;28;20052;-84
2022/10/12 04:06:08;;;;;;;2.10;1.50;;;;;;;;;;5066830;28;20075;-84
2022/10/12 04:08:53;;;;;;;2.75;1.40;;;;;;;;;;5054006;28;20120;-84
2022/10/12 04:11:37;;;;;;;3.67;1.80;;;;;;;;;;5054452;28;20167;-84
2022/10/12 04:14:22;;;;;;;2.30;1.60;;;;;;;;;;5053636;28;20803;-84
2022/10/12 04:17:07;;;;;;;2.33;1.40;;;;;;;;;;5053673;28;20409;-85
2022/10/12 04:19:51;;;;;;;3.95;2.00;;;;;;;;;;5053912;28;20056;-84
2022/10/12 04:22:36;;;;;;;3.03;1.50;;;;;;;;;;5053626;28;20099;-84
2022/10/12 04:25:20;;;;;;;4.57;1.90;;;;;;;;;;5052683;28;20119;-85
2022/10/12 04:28:04;;;;;;;4.45;2.38;;;;;;;;;;5052805;28;20082;-85
2022/10/12 04:30:49;;;;;;;2.17;1.35;;;;;;;;;;5052944;28;20048;-84
2022/10/12 04:33:33;;;;;;;2.60;1.42;;;;;;;;;;5054028;28;20036;-84
2022/10/12 04:36:18;;;;;;;6.65;2.25;;;;;;;;;;5048574;28;20132;-85
2022/10/12 04:39:02;;;;;;;3.22;1.58;;;;;;;;;;5052709;28;20116;-84
2022/10/12 04:41:47;;;;;;;2.58;2.05;;;;;;;;;;5053496;28;20564;-84
2022/10/12 04:44:32;;;;;;;3.22;1.60;;;;;;;;;;5053558;28;20402;-85
2022/10/12 04:47:17;;;;;;;2.25;1.50;;;;;;;;;;5065599;28;20039;-84
2022/10/12 04:50:01;;;;;;;5.63;1.55;;;;;;;;;;5037959;28;20425;-85
2022/10/12 04:52:46;;;;;;;5.55;2.13;;;;;;;;;;5062546;28;20438;-84
2022/10/12 04:55:31;;;;;;;3.58;2.40;;;;;;;;;;5061491;28;20231;-83
2022/10/12 04:58:15;;;;;;;4.35;2.30;;;;;;;;;;5066976;28;20058;-84
2022/10/12 05:01:00;;;;;;;2.90;1.90;;;;;;;;;;5061253;28;20128;-85
2022/10/12 05:03:44;;;;;;;3.08;1.80;;;;;;;;;;5051877;28;20075;-84
2022/10/12 05:06:29;;;;;;;5.30;2.58;;;;;;;;;;5046485;28;20043;-84
2022/10/12 05:09:13;;;;;;;6.32;2.30;;;;;;;;;;5052952;28;20051;-84
2022/10/12 05:11:58;;;;;;;3.40;2.08;;;;;;;;;;5053318;28;20039;-85
2022/10/12 05:14:45;;;;;;;3.85;1.98;;;;;;;;;;5052261;28;20401;-85
2022/10/12 05:17:30;;;;;;;4.38;2.30;;;;;;;;;;5051827;28;20047;-85
2022/10/12 05:20:14;;;;;;;3.15;1.95;;;;;;;;;;5052953;28;20039;-85
2022/10/12 05:22:59;;;;;;;6.95;2.33;;;;;;;;;;5066152;28;20048;-85
2022/10/12 05:25:43;;;;;;;4.13;2.00;;;;;;;;;;5053393;28;20040;-86
2022/10/12 05:28:28;;;;;;;4.07;2.20;;;;;;;;;;5068011;28;20130;-85
2022/10/12 05:31:13;;;;;;;3.13;1.90;;;;;;;;;;5057035;28;20614;-87
2022/10/12 05:33:58;;;;;;;3.53;2.17;;;;;;;;;;5065833;28;20056;-86
2022/10/12 05:36:42;;;;;;;4.75;2.90;;;;;;;;;;5051641;28;20032;-86
2022/10/12 05:39:27;;;;;;;4.50;2.30;;;;;;;;;;5051616;28;20401;-85
2022/10/12 05:42:11;;;;;;;3.42;1.88;;;;;;;;;;5052628;28;20044;-85
2022/10/12 05:44:56;;;;;;;3.50;2.10;;;;;;;;;;5052669;28;20504;-86
2022/10/12 05:47:41;;;;;;;3.70;2.15;;;;;;;;;;5036290;28;20048;-85
2022/10/12 05:50:25;;;;;;;4.05;2.15;;;;;;;;;;5064756;28;20111;-86
2022/10/12 05:53:10;;;;;;;5.15;2.22;;;;;;;;;;5051677;28;20095;-86
2022/10/12 05:55:55;;;;;;;4.22;2.00;;;;;;;;;;5065324;28;20060;-86
2022/10/12 05:58:41;;;;;;;5.32;2.47;;;;;;;;;;5055952;28;20032;-85
2022/10/12 06:01:25;;;;;;;7.47;2.53;;;;;;;;;;5058617;28;20036;-85
2022/10/12 06:04:11;;;;;;;7.45;2.83;;;;;;;;;;5050873;28;20059;-85
2022/10/12 06:06:56;;;;;;;3.95;2.10;;;;;;;;;;5052351;28;20044;-85
2022/10/12 06:09:41;;;;;;;3.53;1.90;;;;;;;;;;5051345;28;20091;-86
2022/10/12 06:12:27;;;;;;;3.45;1.90;;;;;;;;;;5052291;28;20091;-85
2022/10/12 06:15:11;;;;;;;3.47;1.92;;;;;;;;;;5051381;28;20481;-86
2022/10/12 06:17:56;;;;;;;3.03;2.25;;;;;;;;;;5065444;28;20394;-85
2022/10/12 06:20:40;;;;;;;7.55;2.08;;;;;;;;;;5051010;28;20496;-85
2022/10/12 06:23:25;;;;;;;4.43;1.98;;;;;;;;;;5065154;28;20064;-84
2022/10/12 06:26:10;;;;;;;4.65;2.47;;;;;;;;;;5065431;28;20444;-83
2022/10/12 06:28:54;;;;;;;9.82;2.20;;;;;;;;;;5065435;28;20398;-85
2022/10/12 06:31:39;;;;;;;7.38;2.40;;;;;;;;;;5050767;28;20040;-86
2022/10/12 06:34:23;;;;;;;6.38;2.47;;;;;;;;;;5065088;28;20048;-85
2022/10/12 06:37:14;;;;;;;9.05;2.42;;;;;;;;;;5065434;28;20060;-93
2022/10/12 06:39:59;;;;;;;8.52;2.58;;;;;;;;;;5060160;28;20055;-85
2022/10/12 06:42:43;;;;;;;10.82;3.17;;;;;;;;;;5059302;28;20550;-85
2022/10/12 06:45:29;;;;;;;11.20;3.05;;;;;;;;;;5051725;28;20481;-85
2022/10/12 06:48:19;;;;;;;6.65;2.22;;;;;;;;;;5051936;28;20453;-93
2022/10/12 06:51:03;;;;;;;5.85;2.63;;;;;;;;;;5068663;28;20456;-85
2022/10/12 06:53:48;;;;;;;6.38;2.55;;;;;;;;;;5051808;28;20436;-85
2022/10/12 06:56:33;;;;;;;4.60;2.75;;;;;;;;;;5067410;28;20165;-86
2022/10/12 06:59:18;;;;;;;5.45;2.80;;;;;;;;;;5048023;28;20397;-86
2022/10/12 07:02:02;;;;;;;5.13;2.47;;;;;;;;;;5054244;28;20044;-88
2022/10/12 07:04:51;;;;;;;5.05;3.08;;;;;;;;;;5051515;28;20056;-86
2022/10/12 07:07:37;;;;;;;5.20;3.15;;;;;;;;;;5051480;28;20436;-85
2022/10/12 07:10:21;;;;;;;9.43;2.75;;;;;;;;;;5046687;28;20159;-85
2022/10/12 07:13:06;;;;;;;6.70;3.22;;;;;;;;;;5051717;28;20102;-86
2022/10/12 07:15:50;;;;;;;6.05;3.42;;;;;;;;;;5050309;28;20040;-86
2022/10/12 07:18:35;;;;;;;5.53;3.10;;;;;;;;;;5064602;28;20501;-85
2022/10/12 07:21:20;;;;;;;7.95;2.95;;;;;;;;;;5052725;28;20407;-85
2022/10/12 07:24:04;;;;;;;10.80;3.78;;;;;;;;;;5055595;28;20036;-86
2022/10/12 07:26:50;;;;;;;9.13;3.95;;;;;;;;;;5054945;28;20036;-86
2022/10/12 07:29:35;;;;;;;10.40;3.40;;;;;;;;;;5054890;28;20040;-86
2022/10/12 07:32:20;;;;;;;7.78;4.40;;;;;;;;;;5068612;28;20040;-85
2022/10/12 07:35:05;;;;;;;7.60;3.38;;;;;;;;;;5054308;28;20102;-86
2022/10/12 07:37:50;;;;;;;6.88;3.95;;;;;;;;;;5068028;28;20095;-86
2022/10/12 07:40:34;;;;;;;5.60;3.05;;;;;;;;;;5054779;28;20052;-86
2022/10/12 07:43:19;;;;;;;5.30;3.47;;;;;;;;;;5068323;28;20497;-86
2022/10/12 07:46:04;;;;;;;6.57;3.35;;;;;;;;;;5068242;28;20032;-86
2022/10/12 07:48:49;;;;;;;7.97;3.17;;;;;;;;;;5067831;28;20047;-85
2022/10/12 07:51:33;;;;;;;7.28;3.55;;;;;;;;;;5054392;28;20577;-85
2022/10/12 07:54:18;;;;;;;7.18;3.03;;;;;;;;;;5068089;28;20044;-85
2022/10/12 07:57:02;;;;;;;6.18;3.22;;;;;;;;;;5067913;28;20456;-85
2022/10/12 07:59:47;;;;;;;6.28;3.45;;;;;;;;;;5067613;28;20035;-85
2022/10/12 08:02:32;;;;;;;5.25;3.10;;;;;;;;;;5067983;28;20059;-86
2022/10/12 08:05:19;;;;;;;4.70;2.60;;;;;;;;;;5054543;28;20039;-86
2022/10/12 08:08:04;;;;;;;8.77;2.80;;;;;;;;;;5054625;28;20044;-85
2022/10/12 08:10:49;;;;;;;8.23;3.70;;;;;;;;;;5067322;28;20036;-84
2022/10/12 08:13:34;;;;;;;6.70;3.63;;;;;;;;;;5054421;28;20040;-85
2022/10/12 08:16:20;;;;;;;8.80;3.17;;;;;;;;;;5053389;28;20090;-85
2022/10/12 08:19:04;;;;;;;3.92;2.33;;;;;;;;;;5067575;28;20075;-85
2022/10/12 08:21:49;;;;;;;8.18;2.50;;;;;;;;;;5054025;28;20447;-85
2022/10/12 08:24:35;;;;;;;6.63;2.42;;;;;;;;;;5054245;28;20040;-85
2022/10/12 08:27:20;;;;;;;7.70;2.95;;;;;;;;;;5054280;28;20082;-85
2022/10/12 08:30:05;;;;;;;5.53;2.63;;;;;;;;;;5053771;28;20401;-85
2022/10/12 08:32:50;;;;;;;9.52;2.85;;;;;;;;;;5066162;28;20048;-85
2022/10/12 08:35:37;;;;;;;5.28;2.15;;;;;;;;;;5054216;28;20389;-86
2022/10/12 08:38:21;;;;;;;5.72;2.78;;;;;;;;;;5069997;28;20116;-86
2022/10/12 08:41:19;;;;;;;4.93;2.33;;;;;;;;;;5072659;28;20081;-86
2022/10/12 08:44:25;;;;;;;6.32;2.65;;;12.40;99.90;;;;;;5034575;28;20175;-85
2022/10/12 08:47:16;;;;;;;6.43;2.17;;;;;;;;;;5042005;28;20409;-85
2022/10/12 08:50:02;;;;;;;6.07;2.90;;;;;;;;;;5053116;28;20099;-84
2022/10/12 08:52:54;;;;;;;4.38;2.20;;;;;;;;;;5053375;28;20565;-85
2022/10/12 08:55:42;;;;;;;6.82;2.08;;;;;;;;;;5053820;28;20036;-83
2022/10/12 08:58:35;;;;;;;3.00;1.70;;;;;;;;;;5053479;28;20031;-84
2022/10/12 09:01:25;;;;;;;5.88;2.40;;;;;;;;;;5052493;28;20105;-84
2022/10/12 09:04:25;;;;;;;2.80;1.77;;;;;;;;;;5053719;28;20094;-84
2022/10/12 09:07:10;;;;;;;5.00;2.20;;;;;;;;;;5053266;28;20031;-84
2022/10/12 09:10:13;;;;;;;7.25;2.30;;;11.70;99.90;;;;;;5051979;28;20048;-84
2022/10/12 09:12:58;;;;;;;4.13;1.90;;;;;;;;;;5052858;28;20040;-85
2022/10/12 09:15:48;;;;;;;8.10;1.92;;;;;;;;;;5053272;28;20040;-85
2022/10/12 09:18:38;;;;;;;5.60;1.90;;;;;;;;;;5067659;28;20040;-84
2022/10/12 09:21:25;;;;;;;9.43;1.85;;;;;;;;;;5053079;28;20539;-85
2022/10/12 09:24:15;;;;;;;6.30;1.52;;;;;;;;;;5066327;28;20040;-85
2022/10/12 09:27:07;;;;;;;1.98;1.35;;;;;;;;;;5052767;28;20031;-83
2022/10/12 09:29:55;;;;;;;2.58;1.38;;;;;;;;;;5052568;28;20094;-83
2022/10/12 09:32:43;;;;;;;5.43;1.65;;;;;;;;;;5053146;28;20044;-82
2022/10/12 09:35:28;;;;;;;4.95;1.65;;;;;;;;;;5053219;28;20036;-83
2022/10/12 09:38:13;;;;;;;2.53;1.45;;;;;;;;;;5052793;28;20032;-83
2022/10/12 09:40:57;;;;;;;4.22;1.38;;;;;;;;;;5052422;28;20044;-84
2022/10/12 09:43:42;;;;;;;7.38;1.80;;;;;;;;;;5052635;28;20444;-86
2022/10/12 09:46:32;;;;;;;3.17;1.35;;;;;;;;;;5065002;28;20089;-83
2022/10/12 09:49:18;;;;;;;3.88;1.60;;;;;;;;;;5067411;28;20503;-85
2022/10/12 09:52:02;;;;;;;5.47;1.67;;;;;;;;;;5063276;28;20044;-83
2022/10/12 09:54:48;;;;;;;2.95;1.40;;;;;;;;;;5052085;28;20090;-83
2022/10/12 09:57:33;;;;;;;5.47;1.63;;;;;;;;;;5044672;28;20496;-83
2022/10/12 10:00:23;;;;;;;4.15;1.50;;;;;;;;;;5068251;28;20044;-83
2022/10/12 10:03:22;;;;;;;5.80;1.70;;;;;;;;;;5063864;28;20143;-82
2022/10/12 10:06:06;;;;;;;3.83;1.58;;;;;;;;;;5040979;28;20032;-84
2022/10/12 10:08:51;;;;;;;5.00;1.73;;;;;;;;;;5055265;28;20036;-83
2022/10/12 10:11:36;;;;;;;3.40;1.70;;;;;;;;;;5061775;28;20039;-83
2022/10/12 10:14:20;;;;;;;2.72;1.45;;;;;;;;;;5049235;28;20483;-85
2022/10/12 10:17:05;;;;;;;5.13;1.63;;;;;;;;;;5051891;28;20068;-83
2022/10/12 10:19:51;;;;;;;6.40;1.85;;;;;;;;;;5052047;28;20032;-83
2022/10/12 10:22:35;;;;;;;2.63;1.58;;;;;;;;;;5051084;28;20547;-84
2022/10/12 10:25:20;;;;;;;3.38;1.10;;;;;;;;;;5052247;28;20460;-83
2022/10/12 10:28:27;;;;;;;5.80;1.20;;;;;;;;;;5051692;28;20064;-83
2022/10/12 10:31:15;;;;;;;5.15;1.30;;;;;;;;;;5051629;28;20044;-83
2022/10/12 10:34:11;;;;;;;4.25;1.33;;;;;;;;;;5050824;28;20067;-84
2022/10/12 10:36:55;;;;;;;3.28;1.00;;;;;;;;;;5051822;28;20027;-84
2022/10/12 10:39:48;;;;;;;3.28;1.30;;;;;;;;;;5051935;28;20583;-83
2022/10/12 10:42:33;;;;;;;3.42;1.60;;;;;;;;;;5051942;28;20044;-83
2022/10/12 10:45:30;;;;;;;6.00;1.13;;;;;;;;;;5048617;28;20040;-84
2022/10/12 10:48:16;;;;;;;5.50;1.23;;;;;;;;;;5050498;28;20032;-84
2022/10/12 10:51:02;;;;;;;5.20;1.45;;;;;;;;;;5051455;28;20452;-83
2022/10/12 10:53:48;;;;;;;8.98;1.40;;;;;;;;;;5051294;28;20489;-84
2022/10/12 10:56:33;;;;;;;4.30;1.23;;;;;;;;;;5052532;28;20519;-84
2022/10/12 10:59:30;;;;;;;2.03;1.00;;;;;;;;;;5068503;28;20508;-83
2022/10/12 11:02:24;;;;;;;3.42;1.35;;;;;;;;;;5054371;28;20048;-83
2022/10/12 11:05:19;;;;;;;2.60;1.13;;;;;;;;;;5055202;28;20114;-83
2022/10/12 11:08:12;;;;;;;5.00;1.40;;;;;;;;;;5055372;28;20117;-84
2022/10/12 11:10:59;;;;;;;7.63;1.70;;;;;;;;;;5056188;28;20087;-83
2022/10/12 11:13:47;;;;;;;4.35;1.10;;;;;;;;;;5059038;28;20132;-83
2022/10/12 11:16:37;;;;;;;3.53;1.45;;;;;;;;;;5055662;28;20032;-84
2022/10/12 11:19:21;;;;;;;4.22;1.17;;;;;;;;;;5068157;28;20048;-83
2022/10/12 11:22:11;;;;;;;4.30;1.08;;;;;;;;;;5055183;28;20531;-84
2022/10/12 11:25:07;;;;;;;2.45;1.13;;;;;;;;;;5068509;28;20495;-83
2022/10/12 11:27:52;;;;;;;3.13;1.25;;;;;;;;;;5068531;28;20067;-84
2022/10/12 11:30:43;;;;;;;2.15;1.17;;;;;;;;;;5068533;28;20040;-83
2022/10/12 11:33:37;;;;;;;4.28;1.10;;;;;;;;;;5068649;28;20112;-83
2022/10/12 11:36:24;;;;;;;2.67;1.20;;;;;;;;;;5067891;28;20163;-83
2022/10/12 11:39:14;;;;;;;3.95;1.35;;;;;;;;;;5054887;28;20035;-83
2022/10/12 11:42:00;;;;;;;9.57;1.30;;;;;;;;;;5068297;28;20040;-85
2022/10/12 11:44:46;;;;;;;9.02;1.35;;;;;;;;;;5070736;28;20035;-85
2022/10/12 11:47:31;;;;;;;3.85;1.42;;;;;;;;;;5053965;28;20071;-85
2022/10/12 11:50:47;;;;;;;4.15;0.90;;;16.70;99.90;;;;;;5054510;28;20060;-85
2022/10/12 11:53:32;;;;;;;2.28;1.13;;;;;;;;;;5052303;28;20087;-85
2022/10/12 11:56:24;;;;;;;2.65;1.00;;;;;;;;;;5053337;28;20035;-85
2022/10/12 11:59:21;;;;;;;6.70;1.10;;;;;;;;;;5054270;28;20044;-84
2022/10/12 12:02:05;;;;;;;3.35;1.25;;;;;;;;;;5054457;28;20082;-86
2022/10/12 12:04:50;;;;;;;3.88;1.30;;;;;;;;;;5046921;28;20500;-84
2022/10/12 12:07:40;;;;;;;3.45;1.17;;;;;;;;;;5052805;28;20037;-85
2022/10/12 12:10:24;;;;;;;1.55;0.90;;;;;;;;;;5053079;28;20412;-86
2022/10/12 12:13:19;;;;;;;3.17;1.00;;;;;;;;;;5052887;28;20059;-85
2022/10/12 12:16:21;;;;;;;4.18;1.10;;;;;;;;;;5053367;28;20036;-84
2022/10/12 12:19:11;;;;;;;2.78;1.00;;;;;;;;;;5054458;28;20171;-84
2022/10/12 12:22:48;;;;;;;7.43;1.67;;;16.80;97.60;;;;;;5043587;28;20049;-84
2022/10/12 12:25:32;;;;;;;2.05;0.90;;;;;;;;;;5054052;28;20098;-84
2022/10/12 12:28:17;;;;;;;2.72;0.95;;;;;;;;;;5053778;28;20120;-85
2022/10/12 12:31:05;;;;;;;4.07;1.20;;;;;;;;;;5054239;28;20048;-85
2022/10/12 12:34:07;;;;;;;4.38;1.48;;;;;;;;;;5054004;28;20036;-84
2022/10/12 12:36:52;;;;;;;6.45;1.27;;;;;;;;;;5067006;28;20082;-85
2022/10/12 12:39:37;;;;;;;3.22;1.20;;;;;;;;;;5052955;28;20087;-84
2022/10/12 12:42:23;;;;;;;3.28;1.10;;;;;;;;;;5052542;28;20072;-84
2022/10/12 12:45:29;;;;;;;6.00;1.30;;;17.40;99.90;;;;;;5053844;28;20405;-85
2022/10/12 12:48:34;;;;;;;4.03;2.13;;;;;;;;;;5066477;28;20166;-85
2022/10/12 12:51:22;;;;;;;3.72;1.23;;;;;;;;;;5066459;28;20405;-84
2022/10/12 12:54:13;;;;;;;3.08;1.13;;;;;;;;;;5053888;28;20078;-84
2022/10/12 12:57:07;;;;;;;6.38;1.00;;;;;;;;;;5053749;28;20070;-84
2022/10/12 13:00:10;;;;;;;1.67;0.95;;;;;;;;;;5053851;28;20422;-84
2022/10/12 13:03:14;;;;;;;5.22;1.25;;;;;;;;;;5053761;28;20493;-84
2022/10/12 13:06:01;;;;;;;3.90;1.25;;;;;;;;;;5066981;28;20047;-83
2022/10/12 13:09:04;;;;;;;3.28;1.30;;;;;;;;;;5066643;28;20064;-84
2022/10/12 13:11:49;;;;;;;7.03;1.17;;;;;;;;;;5053633;28;20124;-83
2022/10/12 13:14:52;;;;;;;2.58;1.20;;;;;;;;;;5053012;28;20035;-83
2022/10/12 13:17:45;;;;;;;4.07;1.20;;;;;;;;;;5052818;28;20238;-84
2022/10/12 13:20:34;;;;;;;3.00;0.93;;;;;;;;;;5065792;28;20504;-83
2022/10/12 13:23:21;;;;;;;1.77;0.90;;;;;;;;;;5065774;28;20503;-83
2022/10/12 13:26:07;;;;;;;3.33;1.40;;;;;;;;;;5053178;28;20504;-85
2022/10/12 13:28:52;;;;;;;7.63;1.35;;;;;;;;;;5075976;28;20032;-85
2022/10/12 13:31:39;;;;;;;4.30;1.40;;;;;;;;;;5055312;28;20040;-84
2022/10/12 13:34:27;;;;;;;2.28;1.20;;;;;;;;;;5057576;28;20420;-83
2022/10/12 13:37:13;;;;;;;2.60;1.17;;;;;;;;;;5044814;28;20040;-84
2022/10/12 13:39:58;;;;;;;3.75;1.40;;;;;;;;;;5050487;28;20485;-84
2022/10/12 13:42:42;;;;;;;3.47;1.23;;;;;;;;;;5052276;28;20543;-84
2022/10/12 13:45:27;;;;;;;3.60;1.65;;;;;;;;;;5052444;28;20124;-83
2022/10/12 13:48:17;;;;;;;3.05;1.45;;;;;;;;;;5051421;28;20500;-83
2022/10/12 13:51:03;;;;;;;6.45;1.30;;;;;;;;;;5053021;28;20111;-84
2022/10/12 13:53:48;;;;;;;3.80;1.33;;;;;;;;;;5050983;28;20036;-84
2022/10/12 13:56:32;;;;;;;3.38;1.52;;;;;;;;;;5051343;28;20052;-84
2022/10/12 13:59:19;;;;;;;2.97;1.33;;;;;;;;;;5052546;28;20082;-84
2022/10/12 14:02:15;;;;;;;2.47;1.40;;;;;;;;;;5049639;28;20463;-84
2022/10/12 14:05:03;;;;;;;3.42;1.40;;;;;;;;;;5052405;28;20116;-84
2022/10/12 14:07:51;;;;;;;4.78;1.52;;;;;;;;;;5051292;28;20117;-84
2022/10/12 14:10:37;;;;;;;3.83;1.20;;;;;;;;;;5049795;28;20079;-83
2022/10/12 14:13:35;;;;;;;7.30;1.83;;;;;;;;;;5052245;28;20079;-83
2022/10/12 14:16:19;;;;;;;8.85;1.90;;;;;;;;;;5052310;28;20040;-83
2022/10/12 14:19:43;;;;;;;5.22;1.65;;;16.80;96.30;;;;;;5052443;28;20047;-83
2022/10/12 14:22:30;;;;;;;4.20;1.40;;;;;;;;;;5051269;28;20076;-83
2022/10/12 14:25:17;;;;;;;4.25;1.70;;;;;;;;;;5052438;28;20087;-83
2022/10/12 14:28:04;;;;;;;3.83;1.80;;;;;;;;;;5052182;28;20380;-83
2022/10/12 14:30:52;;;;;;;3.83;1.88;;;;;;;;;;5052366;28;20086;-83
2022/10/12 14:33:37;;;;;;;7.97;1.65;;;;;;;;;;5056098;28;20446;-83
2022/10/12 14:36:23;;;;;;;4.63;1.90;;;;;;;;;;5055243;28;20107;-84
2022/10/12 14:39:14;;;;;;;3.20;1.85;;;;;;;;;;5069587;28;20032;-84
2022/10/12 14:42:04;;;;;;;6.78;2.05;;;;;;;;;;5069422;28;20563;-83
2022/10/12 14:44:49;;;;;;;5.40;1.80;;;;;;;;;;5055726;28;20078;-84
2022/10/12 14:47:38;;;;;;;3.65;1.65;;;;;;;;;;5069007;28;20036;-84
2022/10/12 14:50:23;;;;;;;3.78;1.50;;;;;;;;;;5055848;28;20543;-83
2022/10/12 14:53:10;;;;;;;3.60;1.80;;;;;;;;;;5055143;28;20108;-84
2022/10/12 14:55:55;;;;;;;5.50;1.67;;;;;;;;;;5068864;28;20040;-84
2022/10/12 14:58:40;;;;;;;6.43;2.83;;;;;;;;;;5055664;28;20047;-84
2022/10/12 15:01:25;;;;;;;3.05;1.60;;;;;;;;;;5069030;28;20500;-84
2022/10/12 15:04:13;;;;;;;6.90;2.15;;;;;;;;;;5054755;28;20440;-83
2022/10/12 15:06:58;;;;;;;6.72;2.03;;;;;;;;;;5055837;28;20031;-83
2022/10/12 15:09:43;;;;;;;7.38;1.98;;;;;;;;;;5054305;28;20099;-83
2022/10/12 15:12:29;;;;;;;8.18;1.75;;;;;;;;;;5055581;28;20067;-84
2022/10/12 15:15:16;;;;;;;5.68;1.92;;;;;;;;;;5055661;28;20083;-83
2022/10/12 15:18:01;;;;;;;4.60;1.65;;;;;;;;;;5055623;28;20044;-83
2022/10/12 15:20:47;;;;;;;4.22;1.73;;;;;;;;;;5054077;28;20036;-83
2022/10/12 15:23:32;;;;;;;4.05;1.90;;;;;;;;;;5055405;28;20126;-83
2022/10/12 15:26:17;;;;;;;6.60;1.88;;;;;;;;;;5068464;28;20120;-84
2022/10/12 15:29:02;;;;;;;4.40;1.85;;;;;;;;;;5068238;28;20440;-83
2022/10/12 15:31:47;;;;;;;3.92;2.47;;;;;;;;;;5058748;28;20448;-84
2022/10/12 15:34:31;;;;;;;5.18;2.15;;;;;;;;;;5055132;28;20492;-83
2022/10/12 15:37:16;;;;;;;5.20;1.80;;;;;;;;;;5065890;28;20094;-84
2022/10/12 15:40:00;;;;;;;5.70;1.75;;;;;;;;;;5070356;28;20584;-84
2022/10/12 15:42:44;;;;;;;6.95;2.17;;;;;;;;;;5050313;28;20520;-84
2022/10/12 15:45:36;;;;;;;9.77;1.98;;;;;;;;;;5045872;28;20401;-82
2022/10/12 15:48:20;;;;;;;3.40;1.52;;;;;;;;;;5054612;28;21348;-84
2022/10/12 15:51:12;;;;;;;5.70;1.85;;;;;;;;;;5053616;28;20122;-84
2022/10/12 15:53:57;;;;;;;6.20;2.13;;;;;;;;;;5045467;28;20040;-84
2022/10/12 15:56:42;;;;;;;7.15;2.00;;;;;;;;;;5053298;28;20047;-84
2022/10/12 15:59:26;;;;;;;3.75;1.65;;;;;;;;;;5054625;28;20056;-84
2022/10/12 16:02:11;;;;;;;4.70;2.05;;;;;;;;;;5053588;28;20198;-84
2022/10/12 16:04:56;;;;;;;5.53;1.80;;;;;;;;;;5053972;28;20091;-82
2022/10/12 16:07:41;;;;;;;4.10;1.55;;;;;;;;;;5052503;28;20039;-84
2022/10/12 16:10:27;;;;;;;3.17;1.85;;;;;;;;;;5059144;28;20032;-83
2022/10/12 16:13:12;;;;;;;7.15;2.10;;;;;;;;;;5057909;28;20128;-82
2022/10/12 16:15:57;;;;;;;6.53;2.25;;;;;;;;;;5052745;28;20043;-83
2022/10/12 16:18:41;;;;;;;10.88;1.90;;;;;;;;;;5053192;28;20599;-82
2022/10/12 16:21:26;;;;;;;7.15;2.17;;;;;;;;;;5067115;28;20439;-82
2022/10/12 16:24:10;;;;;;;7.10;2.10;;;;;;;;;;5053927;28;20435;-82
2022/10/12 16:26:55;;;;;;;4.57;2.60;;;;;;;;;;5041616;28;20036;-83
2022/10/12 16:29:39;;;;;;;9.48;2.22;;;;;;;;;;5053823;28;20091;-83
2022/10/12 16:32:24;;;;;;;4.63;1.75;;;;;;;;;;5054112;28;20116;-83
2022/10/12 16:35:08;;;;;;;5.22;2.08;;;;;;;;;;5052173;28;20116;-82
2022/10/12 16:37:53;;;;;;;5.25;2.42;;;;;;;;;;5059667;28;20493;-83
2022/10/12 16:40:38;;;;;;;3.95;2.20;;;;;;;;;;5053853;28;20600;-83